Spennymoor, United Kingdom
Current Conditions -  °F | °C
As of 6:20 PM on Thursday 18 Dec 2014 (Local Time) from EGNV Reporting Station
Few Clouds Few Clouds  
Wind Chill: 54°   Ceiling: Unl
Heat Index: 54°   Visibility: 6mi
Dew Point: 46°   Wind: 14mph
Humidity: 77%   Direction: 260°W
Pressure: 29.47"   Gusts: NA
Location:  54.7°N, 1.6°W
Report Text: EGNV 181820Z 26012KT 9999 FEW025 12/08 Q0998
Loading
Personal Weather Stations






























Interactive Weather Map New forecast layout! Learn more

10-Day Weather Forecast

Advertisements
Track Severe Weather on mobile